sensor_id;sensor_type;location;lat;lon;timestamp;pressure;altitude;pressure_sealevel;temperature;humidity
65131;BME280;51709;54.912;8.316;2023-05-23T00:05:06;101451.31;;;13.83;72.36
65131;BME280;51709;54.912;8.316;2023-05-23T00:10:27;101454.13;;;13.76;72.64
65131;BME280;51709;54.912;8.316;2023-05-23T00:15:48;101456.00;;;13.67;72.66
65131;BME280;51709;54.912;8.316;2023-05-23T00:21:08;101450.91;;;13.66;72.87
65131;BME280;51709;54.912;8.316;2023-05-23T00:26:29;101455.31;;;13.61;72.65
65131;BME280;51709;54.912;8.316;2023-05-23T00:31:50;101438.19;;;13.58;72.59
65131;BME280;51709;54.912;8.316;2023-05-23T00:37:10;101441.59;;;13.59;72.88
65131;BME280;51709;54.912;8.316;2023-05-23T00:42:31;101427.91;;;13.56;72.77
65131;BME280;51709;54.912;8.316;2023-05-23T00:47:53;101438.19;;;13.58;72.88
65131;BME280;51709;54.912;8.316;2023-05-23T00:53:14;101445.09;;;13.58;72.96
65131;BME280;51709;54.912;8.316;2023-05-23T00:58:34;101439.03;;;13.59;73.00
65131;BME280;51709;54.912;8.316;2023-05-23T01:03:54;101441.59;;;13.59;73.11
65131;BME280;51709;54.912;8.316;2023-05-23T01:09:16;101427.91;;;13.56;72.91
65131;BME280;51709;54.912;8.316;2023-05-23T01:15:02;101417.63;;;13.55;73.21
65131;BME280;51709;54.912;8.316;2023-05-23T01:20:33;101413.47;;;13.49;73.41
65131;BME280;51709;54.912;8.316;2023-05-23T01:31:48;101410.38;;;13.33;73.47
65131;BME280;51709;54.912;8.316;2023-05-23T01:37:12;101417.38;;;13.28;73.63
65131;BME280;51709;54.912;8.316;2023-05-23T01:42:35;101424.25;;;13.28;73.62
65131;BME280;51709;54.912;8.316;2023-05-23T01:47:56;101434.59;;;13.26;73.46
65131;BME280;51709;54.912;8.316;2023-05-23T01:53:20;101426.06;;;13.24;73.83
65131;BME280;51709;54.912;8.316;2023-05-23T01:58:41;101426.88;;;13.24;73.67
65131;BME280;51709;54.912;8.316;2023-05-23T02:04:03;101425.22;;;13.22;73.74
65131;BME280;51709;54.912;8.316;2023-05-23T02:09:23;101434.84;;;13.15;73.92
65131;BME280;51709;54.912;8.316;2023-05-23T02:14:44;101423.84;;;13.07;73.91
65131;BME280;51709;54.912;8.316;2023-05-23T02:20:05;101431.75;;;12.99;73.86
65131;BME280;51709;54.912;8.316;2023-05-23T02:25:27;101446.53;;;12.89;74.14
65131;BME280;51709;54.912;8.316;2023-05-23T02:30:47;101460.59;;;12.74;74.42
65131;BME280;51709;54.912;8.316;2023-05-23T02:36:09;101456.59;;;12.59;74.38
65131;BME280;51709;54.912;8.316;2023-05-23T02:41:31;101430.22;;;12.48;74.65
65131;BME280;51709;54.912;8.316;2023-05-23T02:46:51;101454.50;;;12.35;74.75
65131;BME280;51709;54.912;8.316;2023-05-23T02:52:12;101443.59;;;12.22;74.79
65131;BME280;51709;54.912;8.316;2023-05-23T02:57:33;101469.63;;;12.05;74.98
65131;BME280;51709;54.912;8.316;2023-05-23T03:02:53;101468.88;;;11.98;75.04
65131;BME280;51709;54.912;8.316;2023-05-23T03:08:17;101448.41;;;11.87;74.96
65131;BME280;51709;54.912;8.316;2023-05-23T03:13:38;101450.31;;;11.76;75.13
65131;BME280;51709;54.912;8.316;2023-05-23T03:18:59;101468.44;;;11.68;75.14
65131;BME280;51709;54.912;8.316;2023-05-23T03:24:20;101477.16;;;11.57;75.30
65131;BME280;51709;54.912;8.316;2023-05-23T03:29:42;101471.34;;;11.46;75.25
65131;BME280;51709;54.912;8.316;2023-05-23T03:35:03;101460.19;;;11.47;75.28
65131;BME280;51709;54.912;8.316;2023-05-23T03:40:24;101483.38;;;11.43;75.39
65131;BME280;51709;54.912;8.316;2023-05-23T03:45:46;101473.19;;;11.36;75.33
65131;BME280;51709;54.912;8.316;2023-05-23T03:51:10;101486.94;;;11.34;75.25
65131;BME280;51709;54.912;8.316;2023-05-23T03:56:34;101493.88;;;11.29;75.37
65131;BME280;51709;54.912;8.316;2023-05-23T04:01:56;101507.63;;;11.24;75.23
65131;BME280;51709;54.912;8.316;2023-05-23T04:07:19;101496.53;;;11.21;75.32
65131;BME280;51709;54.912;8.316;2023-05-23T04:12:40;101522.25;;;11.18;75.24
65131;BME280;51709;54.912;8.316;2023-05-23T04:18:06;101515.38;;;11.18;75.41
65131;BME280;51709;54.912;8.316;2023-05-23T04:23:30;101524.03;;;11.14;75.43
65131;BME280;51709;54.912;8.316;2023-05-23T04:28:52;101534.34;;;11.09;75.29
65131;BME280;51709;54.912;8.316;2023-05-23T04:34:14;101536.16;;;11.03;75.33
65131;BME280;51709;54.912;8.316;2023-05-23T04:39:36;101536.22;;;10.98;75.50
65131;BME280;51709;54.912;8.316;2023-05-23T04:45:36;101517.41;;;10.93;75.57
65131;BME280;51709;54.912;8.316;2023-05-23T04:51:08;101553.44;;;10.88;75.64
65131;BME280;51709;54.912;8.316;2023-05-23T04:56:34;101549.13;;;10.90;75.49
65131;BME280;51709;54.912;8.316;2023-05-23T05:01:54;101561.09;;;10.91;75.36
65131;BME280;51709;54.912;8.316;2023-05-23T05:07:15;101554.28;;;10.87;75.46
65131;BME280;51709;54.912;8.316;2023-05-23T05:12:37;101545.84;;;10.76;75.66
65131;BME280;51709;54.912;8.316;2023-05-23T05:17:58;101585.28;;;10.67;75.83
65131;BME280;51709;54.912;8.316;2023-05-23T05:23:19;101574.16;;;10.70;75.97
65131;BME280;51709;54.912;8.316;2023-05-23T05:28:40;101584.41;;;10.71;76.03
65131;BME280;51709;54.912;8.316;2023-05-23T05:34:01;101587.81;;;10.72;76.14
65131;BME280;51709;54.912;8.316;2023-05-23T05:39:23;101590.34;;;10.75;76.10
65131;BME280;51709;54.912;8.316;2023-05-23T05:44:46;101596.31;;;10.78;75.96
65131;BME280;51709;54.912;8.316;2023-05-23T05:50:08;101602.25;;;10.82;75.87
65131;BME280;51709;54.912;8.316;2023-05-23T05:55:30;101601.44;;;10.80;76.04
65131;BME280;51709;54.912;8.316;2023-05-23T06:00:51;101619.41;;;10.82;75.98
65131;BME280;51709;54.912;8.316;2023-05-23T06:06:15;101620.22;;;10.85;75.77
65131;BME280;51709;54.912;8.316;2023-05-23T06:11:36;101627.91;;;10.88;75.51
65131;BME280;51709;54.912;8.316;2023-05-23T06:17:02;101608.97;;;10.95;75.48
65131;BME280;51709;54.912;8.316;2023-05-23T06:22:23;101635.44;;;11.05;75.30
65131;BME280;51709;54.912;8.316;2023-05-23T06:27:43;101631.00;;;11.18;75.07
65131;BME280;51709;54.912;8.316;2023-05-23T06:33:05;101656.50;;;11.37;74.68
65131;BME280;51709;54.912;8.316;2023-05-23T06:38:29;101635.09;;;11.36;74.46
65131;BME280;51709;54.912;8.316;2023-05-23T06:43:50;101631.72;;;11.31;74.60
65131;BME280;51709;54.912;8.316;2023-05-23T06:49:16;101659.09;;;11.35;74.38
65131;BME280;51709;54.912;8.316;2023-05-23T06:54:38;101671.97;;;11.34;74.44
65131;BME280;51709;54.912;8.316;2023-05-23T06:59:59;101662.63;;;11.25;74.40
65131;BME280;51709;54.912;8.316;2023-05-23T07:05:22;101679.78;;;11.21;74.29
65131;BME280;51709;54.912;8.316;2023-05-23T07:10:44;101687.34;;;11.37;73.77
65131;BME280;51709;54.912;8.316;2023-05-23T07:16:27;101654.59;;;11.54;73.65
65131;BME280;51709;54.912;8.316;2023-05-23T07:21:56;101680.28;;;11.56;73.45
65131;BME280;51709;54.912;8.316;2023-05-23T07:27:16;101683.59;;;11.66;73.10
65131;BME280;51709;54.912;8.316;2023-05-23T07:32:38;101682.81;;;11.61;72.92
65131;BME280;51709;54.912;8.316;2023-05-23T07:38:05;101695.59;;;11.65;72.84
65131;BME280;51709;54.912;8.316;2023-05-23T07:43:26;101704.06;;;11.75;72.39
65131;BME280;51709;54.912;8.316;2023-05-23T07:48:48;101698.84;;;11.81;72.12
65131;BME280;51709;54.912;8.316;2023-05-23T07:54:08;101713.31;;;11.90;71.93
65131;BME280;51709;54.912;8.316;2023-05-23T07:59:33;101710.66;;;11.96;71.64
65131;BME280;51709;54.912;8.316;2023-05-23T08:04:54;101717.47;;;12.02;71.46
65131;BME280;51709;54.912;8.316;2023-05-23T08:10:17;101712.38;;;11.99;71.30
65131;BME280;51709;54.912;8.316;2023-05-23T08:15:57;101704.53;;;12.07;71.53
65131;BME280;51709;54.912;8.316;2023-05-23T08:21:22;101740.81;;;12.52;70.44
65131;BME280;51709;54.912;8.316;2023-05-23T08:26:43;101750.50;;;12.92;69.54
65131;BME280;51709;54.912;8.316;2023-05-23T08:32:06;101749.75;;;12.87;69.65
65131;BME280;51709;54.912;8.316;2023-05-23T08:37:28;101747.19;;;12.84;69.71
65131;BME280;51709;54.912;8.316;2023-05-23T08:42:49;101740.22;;;12.89;69.42
65131;BME280;51709;54.912;8.316;2023-05-23T08:48:13;101742.41;;;13.16;68.82
65131;BME280;51709;54.912;8.316;2023-05-23T08:53:40;101751.97;;;13.07;69.05
65131;BME280;51709;54.912;8.316;2023-05-23T08:59:02;101759.09;;;12.91;69.31
65131;BME280;51709;54.912;8.316;2023-05-23T09:04:24;101761.47;;;13.04;69.08
65131;BME280;51709;54.912;8.316;2023-05-23T09:09:49;101776.19;;;12.97;68.81
65131;BME280;51709;54.912;8.316;2023-05-23T09:15:11;101766.00;;;12.91;68.98
65131;BME280;51709;54.912;8.316;2023-05-23T09:20:33;101769.53;;;12.84;68.39
65131;BME280;51709;54.912;8.316;2023-05-23T09:26:09;101761.75;;;12.87;68.09
65131;BME280;51709;54.912;8.316;2023-05-23T09:31:31;101783.28;;;12.84;67.99
65131;BME280;51709;54.912;8.316;2023-05-23T09:36:54;101788.59;;;13.28;67.48
65131;BME280;51709;54.912;8.316;2023-05-23T09:42:21;101778.13;;;13.84;66.24
65131;BME280;51709;54.912;8.316;2023-05-23T09:47:49;101758.81;;;13.60;66.15
65131;BME280;51709;54.912;8.316;2023-05-23T09:53:13;101778.56;;;13.09;67.30
65131;BME280;51709;54.912;8.316;2023-05-23T09:58:37;101782.78;;;13.15;67.20
65131;BME280;51709;54.912;8.316;2023-05-23T10:04:00;101778.16;;;13.34;66.42
65131;BME280;51709;54.912;8.316;2023-05-23T10:09:24;101783.28;;;13.84;65.29
65131;BME280;51709;54.912;8.316;2023-05-23T10:14:51;101794.09;;;14.03;64.77
65131;BME280;51709;54.912;8.316;2023-05-23T10:20:15;101776.50;;;14.23;64.47
65131;BME280;51709;54.912;8.316;2023-05-23T10:25:37;101807.88;;;14.45;64.21
65131;BME280;51709;54.912;8.316;2023-05-23T10:30:59;101793.94;;;14.90;62.62
65131;BME280;51709;54.912;8.316;2023-05-23T10:36:32;101770.84;;;15.18;61.71
65131;BME280;51709;54.912;8.316;2023-05-23T10:41:59;101807.41;;;15.04;61.99
65131;BME280;51709;54.912;8.316;2023-05-23T10:47:27;101805.44;;;15.14;61.30
65131;BME280;51709;54.912;8.316;2023-05-23T10:52:52;101792.75;;;15.39;60.98
65131;BME280;51709;54.912;8.316;2023-05-23T10:58:18;101807.13;;;15.84;59.91
65131;BME280;51709;54.912;8.316;2023-05-23T11:09:13;101806.16;;;15.19;60.48
65131;BME280;51709;54.912;8.316;2023-05-23T11:20:07;101818.38;;;14.78;60.70
65131;BME280;51709;54.912;8.316;2023-05-23T11:25:49;101816.00;;;14.69;61.10
65131;BME280;51709;54.912;8.316;2023-05-23T11:31:10;101804.69;;;14.73;60.31
65131;BME280;51709;54.912;8.316;2023-05-23T11:36:31;101834.94;;;14.27;61.44
65131;BME280;51709;54.912;8.316;2023-05-23T11:42:02;101839.59;;;14.50;60.94
65131;BME280;51709;54.912;8.316;2023-05-23T11:47:23;101844.59;;;14.58;59.88
65131;BME280;51709;54.912;8.316;2023-05-23T11:52:45;101847.50;;;14.44;60.06
65131;BME280;51709;54.912;8.316;2023-05-23T11:58:10;101860.22;;;14.53;59.91
65131;BME280;51709;54.912;8.316;2023-05-23T12:03:47;101847.81;;;15.45;58.01
65131;BME280;51709;54.912;8.316;2023-05-23T12:09:11;101853.09;;;15.73;56.83
65131;BME280;51709;54.912;8.316;2023-05-23T12:14:32;101836.00;;;15.34;57.24
65131;BME280;51709;54.912;8.316;2023-05-23T12:19:53;101847.06;;;15.74;56.34
65131;BME280;51709;54.912;8.316;2023-05-23T12:25:14;101842.44;;;15.84;55.67
65131;BME280;51709;54.912;8.316;2023-05-23T12:30:42;101850.47;;;15.75;55.61
65131;BME280;51709;54.912;8.316;2023-05-23T12:36:05;101854.06;;;15.69;55.63
65131;BME280;51709;54.912;8.316;2023-05-23T12:41:25;101857.97;;;16.17;54.30
65131;BME280;51709;54.912;8.316;2023-05-23T12:46:46;101864.34;;;16.37;53.67
65131;BME280;51709;54.912;8.316;2023-05-23T12:52:08;101868.13;;;16.55;53.19
65131;BME280;51709;54.912;8.316;2023-05-23T12:57:29;101849.75;;;16.34;53.16
65131;BME280;51709;54.912;8.316;2023-05-23T13:02:50;101840.28;;;16.01;53.82
65131;BME280;51709;54.912;8.316;2023-05-23T13:08:11;101853.25;;;16.00;53.56
65131;BME280;51709;54.912;8.316;2023-05-23T13:13:32;101864.97;;;15.80;53.55
65131;BME280;51709;54.912;8.316;2023-05-23T13:18:53;101865.16;;;16.07;52.18
65131;BME280;51709;54.912;8.316;2023-05-23T13:24:14;101858.97;;;16.13;52.15
65131;BME280;51709;54.912;8.316;2023-05-23T13:29:34;101884.75;;;16.17;52.34
65131;BME280;51709;54.912;8.316;2023-05-23T13:34:55;101872.47;;;15.93;52.32
65131;BME280;51709;54.912;8.316;2023-05-23T13:40:17;101882.28;;;15.78;52.41
65131;BME280;51709;54.912;8.316;2023-05-23T13:45:39;101859.38;;;15.97;52.09
65131;BME280;51709;54.912;8.316;2023-05-23T13:51:00;101883.09;;;15.80;51.89
65131;BME280;51709;54.912;8.316;2023-05-23T13:56:20;101854.13;;;15.66;52.22
65131;BME280;51709;54.912;8.316;2023-05-23T14:01:42;101882.41;;;15.74;52.40
65131;BME280;51709;54.912;8.316;2023-05-23T14:07:03;101878.28;;;15.66;52.54
65131;BME280;51709;54.912;8.316;2023-05-23T14:12:25;101882.59;;;15.67;52.24
65131;BME280;51709;54.912;8.316;2023-05-23T14:17:46;101875.38;;;15.44;52.59
65131;BME280;51709;54.912;8.316;2023-05-23T14:23:07;101879.69;;;15.45;52.83
65131;BME280;51709;54.912;8.316;2023-05-23T14:28:28;101867.69;;;15.76;52.29
65131;BME280;51709;54.912;8.316;2023-05-23T14:33:49;101877.41;;;15.67;52.12
65131;BME280;51709;54.912;8.316;2023-05-23T14:39:09;101884.63;;;15.54;51.85
65131;BME280;51709;54.912;8.316;2023-05-23T14:44:31;101897.25;;;15.67;52.30
65131;BME280;51709;54.912;8.316;2023-05-23T14:49:51;101883.13;;;15.46;52.59
65131;BME280;51709;54.912;8.316;2023-05-23T14:55:12;101887.19;;;15.56;52.94
65131;BME280;51709;54.912;8.316;2023-05-23T15:00:33;101883.16;;;15.79;51.97
65131;BME280;51709;54.912;8.316;2023-05-23T15:05:53;101885.28;;;16.59;50.26
65131;BME280;51709;54.912;8.316;2023-05-23T15:11:14;101900.56;;;16.38;49.93
65131;BME280;51709;54.912;8.316;2023-05-23T15:16:35;101886.16;;;16.28;50.22
65131;BME280;51709;54.912;8.316;2023-05-23T15:21:56;101901.25;;;16.75;49.48
65131;BME280;51709;54.912;8.316;2023-05-23T15:27:17;101897.69;;;17.61;47.58
65131;BME280;51709;54.912;8.316;2023-05-23T15:32:40;101905.16;;;17.44;47.69
65131;BME280;51709;54.912;8.316;2023-05-23T15:38:01;101893.88;;;18.22;46.80
65131;BME280;51709;54.912;8.316;2023-05-23T15:43:21;101894.00;;;19.11;45.07
65131;BME280;51709;54.912;8.316;2023-05-23T15:48:44;101860.28;;;19.08;44.77
65131;BME280;51709;54.912;8.316;2023-05-23T15:54:05;101884.13;;;18.51;45.05
65131;BME280;51709;54.912;8.316;2023-05-23T15:59:26;101871.84;;;18.55;44.86
65131;BME280;51709;54.912;8.316;2023-05-23T16:04:47;101891.06;;;18.74;44.47
65131;BME280;51709;54.912;8.316;2023-05-23T16:10:08;101888.72;;;17.70;46.18
65131;BME280;51709;54.912;8.316;2023-05-23T16:15:29;101885.84;;;17.52;46.37
65131;BME280;51709;54.912;8.316;2023-05-23T16:20:49;101897.16;;;16.96;47.14
65131;BME280;51709;54.912;8.316;2023-05-23T16:26:10;101891.31;;;15.98;48.64
65131;BME280;51709;54.912;8.316;2023-05-23T16:31:31;101888.00;;;16.84;47.32
65131;BME280;51709;54.912;8.316;2023-05-23T16:36:52;101880.66;;;17.25;47.09
65131;BME280;51709;54.912;8.316;2023-05-23T16:42:13;101894.72;;;17.72;45.87
65131;BME280;51709;54.912;8.316;2023-05-23T16:47:33;101877.31;;;16.95;47.31
65131;BME280;51709;54.912;8.316;2023-05-23T16:52:54;101889.69;;;16.85;47.57
65131;BME280;51709;54.912;8.316;2023-05-23T16:58:15;101882.41;;;16.40;48.25
65131;BME280;51709;54.912;8.316;2023-05-23T17:03:40;101883.41;;;15.68;49.58
65131;BME280;51709;54.912;8.316;2023-05-23T17:09:01;101895.56;;;15.31;50.40
65131;BME280;51709;54.912;8.316;2023-05-23T17:14:22;101892.53;;;14.30;51.82
65131;BME280;51709;54.912;8.316;2023-05-23T17:19:43;101907.56;;;14.08;52.40
65131;BME280;51709;54.912;8.316;2023-05-23T17:25:04;101897.94;;;14.18;51.85
65131;BME280;51709;54.912;8.316;2023-05-23T17:30:25;101873.78;;;13.74;52.69
65131;BME280;51709;54.912;8.316;2023-05-23T17:35:47;101893.13;;;13.48;53.11
65131;BME280;51709;54.912;8.316;2023-05-23T17:41:08;101901.59;;;12.97;54.00
65131;BME280;51709;54.912;8.316;2023-05-23T17:46:29;101889.19;;;12.62;55.17
65131;BME280;51709;54.912;8.316;2023-05-23T17:51:50;101889.69;;;12.17;56.12
65131;BME280;51709;54.912;8.316;2023-05-23T17:57:11;101890.03;;;11.77;57.20
65131;BME280;51709;54.912;8.316;2023-05-23T18:02:32;101891.25;;;11.36;57.96
65131;BME280;51709;54.912;8.316;2023-05-23T18:07:53;101895.69;;;11.14;58.80
65131;BME280;51709;54.912;8.316;2023-05-23T18:13:14;101894.84;;;11.07;59.28
65131;BME280;51709;54.912;8.316;2023-05-23T18:18:34;101908.56;;;11.09;59.87
65131;BME280;51709;54.912;8.316;2023-05-23T18:23:55;101902.53;;;11.12;60.24
65131;BME280;51709;54.912;8.316;2023-05-23T18:29:17;101912.00;;;11.00;60.51
65131;BME280;51709;54.912;8.316;2023-05-23T18:34:39;101908.66;;;10.92;61.09
65131;BME280;51709;54.912;8.316;2023-05-23T18:40:00;101897.56;;;10.81;61.40
65131;BME280;51709;54.912;8.316;2023-05-23T18:45:21;101890.81;;;10.69;62.00
65131;BME280;51709;54.912;8.316;2023-05-23T18:50:42;101904.50;;;10.61;62.22
65131;BME280;51709;54.912;8.316;2023-05-23T18:56:04;101896.81;;;10.54;62.78
65131;BME280;51709;54.912;8.316;2023-05-23T19:01:24;101919.97;;;10.47;62.96
65131;BME280;51709;54.912;8.316;2023-05-23T19:06:45;101929.38;;;10.41;63.30
65131;BME280;51709;54.912;8.316;2023-05-23T19:12:06;101915.69;;;10.32;63.35
65131;BME280;51709;54.912;8.316;2023-05-23T19:17:27;101910.59;;;10.20;63.71
65131;BME280;51709;54.912;8.316;2023-05-23T19:22:48;101938.84;;;10.11;64.14
65131;BME280;51709;54.912;8.316;2023-05-23T19:28:11;101932.84;;;10.06;64.33
65131;BME280;51709;54.912;8.316;2023-05-23T19:33:34;101949.97;;;10.02;64.78
65131;BME280;51709;54.912;8.316;2023-05-23T19:38:55;101957.63;;;9.99;64.72
65131;BME280;51709;54.912;8.316;2023-05-23T19:44:16;101935.44;;;9.99;64.95
65131;BME280;51709;54.912;8.316;2023-05-23T19:49:37;101949.09;;;10.03;65.10
65131;BME280;51709;54.912;8.316;2023-05-23T19:54:57;101946.53;;;10.05;65.20
65131;BME280;51709;54.912;8.316;2023-05-23T20:00:21;101938.84;;;10.00;65.49
65131;BME280;51709;54.912;8.316;2023-05-23T20:05:42;101945.69;;;9.99;65.64
65131;BME280;51709;54.912;8.316;2023-05-23T20:11:03;101941.41;;;10.05;65.89
65131;BME280;51709;54.912;8.316;2023-05-23T20:16:23;101943.97;;;10.05;66.03
65131;BME280;51709;54.912;8.316;2023-05-23T20:21:44;101943.09;;;10.02;66.26
65131;BME280;51709;54.912;8.316;2023-05-23T20:27:07;101962.75;;;10.00;66.32
65131;BME280;51709;54.912;8.316;2023-05-23T20:32:27;101962.78;;;9.99;67.00
65131;BME280;51709;54.912;8.316;2023-05-23T20:37:48;101962.75;;;9.96;66.94
65131;BME280;51709;54.912;8.316;2023-05-23T20:43:13;102008.09;;;9.95;67.12
65131;BME280;51709;54.912;8.316;2023-05-23T20:48:34;101955.94;;;9.95;67.34
65131;BME280;51709;54.912;8.316;2023-05-23T20:53:55;101948.25;;;9.92;67.49
65131;BME280;51709;54.912;8.316;2023-05-23T20:59:16;101953.38;;;9.92;67.63
65131;BME280;51709;54.912;8.316;2023-05-23T21:04:37;101937.13;;;9.86;67.84
65131;BME280;51709;54.912;8.316;2023-05-23T21:10:00;101967.03;;;9.84;67.89
65131;BME280;51709;54.912;8.316;2023-05-23T21:15:24;101953.34;;;9.82;68.37
65131;BME280;51709;54.912;8.316;2023-05-23T21:20:48;101961.91;;;9.84;68.30
65131;BME280;51709;54.912;8.316;2023-05-23T21:26:10;101955.06;;;9.83;68.55
65131;BME280;51709;54.912;8.316;2023-05-23T21:31:31;101957.66;;;9.82;68.75
65131;BME280;51709;54.912;8.316;2023-05-23T21:37:01;101955.94;;;9.82;68.89
65131;BME280;51709;54.912;8.316;2023-05-23T21:42:21;101943.09;;;9.82;68.97
65131;BME280;51709;54.912;8.316;2023-05-23T21:47:44;101926.88;;;9.82;69.04
65131;BME280;51709;54.912;8.316;2023-05-23T21:53:05;101951.66;;;9.80;68.90
65131;BME280;51709;54.912;8.316;2023-05-23T21:58:25;101949.97;;;9.80;69.41
65131;BME280;51709;54.912;8.316;2023-05-23T22:03:46;101958.50;;;9.79;69.64
65131;BME280;51709;54.912;8.316;2023-05-23T22:09:07;101968.75;;;9.79;69.81
65131;BME280;51709;54.912;8.316;2023-05-23T22:14:31;101968.75;;;9.82;69.85
65131;BME280;51709;54.912;8.316;2023-05-23T22:19:52;101964.47;;;9.80;70.02
65131;BME280;51709;54.912;8.316;2023-05-23T22:25:15;101963.63;;;9.82;70.09
65131;BME280;51709;54.912;8.316;2023-05-23T22:30:36;101949.97;;;9.85;70.18
65131;BME280;51709;54.912;8.316;2023-05-23T22:35:57;101955.94;;;9.84;70.08
65131;BME280;51709;54.912;8.316;2023-05-23T22:41:17;101957.66;;;9.82;70.33
65131;BME280;51709;54.912;8.316;2023-05-23T22:46:38;101944.81;;;9.79;70.50
65131;BME280;51709;54.912;8.316;2023-05-23T22:52:02;101949.09;;;9.80;70.67
65131;BME280;51709;54.912;8.316;2023-05-23T22:57:23;101941.41;;;9.78;70.81
65131;BME280;51709;54.912;8.316;2023-05-23T23:02:43;101954.22;;;9.80;71.03
65131;BME280;51709;54.912;8.316;2023-05-23T23:08:04;101942.25;;;9.82;70.98
65131;BME280;51709;54.912;8.316;2023-05-23T23:13:25;101939.69;;;9.83;70.95
65131;BME280;51709;54.912;8.316;2023-05-23T23:18:46;101948.25;;;9.81;70.98
65131;BME280;51709;54.912;8.316;2023-05-23T23:24:07;101928.59;;;9.83;71.09
65131;BME280;51709;54.912;8.316;2023-05-23T23:29:28;101928.59;;;9.84;71.07
65131;BME280;51709;54.912;8.316;2023-05-23T23:34:49;101913.22;;;9.86;71.17
65131;BME280;51709;54.912;8.316;2023-05-23T23:40:10;101935.44;;;9.89;71.34
65131;BME280;51709;54.912;8.316;2023-05-23T23:45:31;101917.47;;;9.85;71.38
65131;BME280;51709;54.912;8.316;2023-05-23T23:50:51;101937.13;;;9.83;71.51
65131;BME280;51709;54.912;8.316;2023-05-23T23:56:12;101920.88;;;9.84;71.59
